Time;durP1;ratioP1;P1;durP2;ratioP2;P2;SDS_P1;SDS_P2;PMS_P1;PMS_P2;Temp;Humidity;BMP_temperature;BMP_pressure;BME280_temperature;BME280_humidity;BME280_pressure;Samples;Min_cycle;Max_cycle;Signal;HPM_P1;HPM_P2
2021/10/04 00:04:28;;;;;;;2.92;1.20;;;18.90;74.80;;;;;;10503903;28;20119;-64
2021/10/04 00:09:29;;;;;;;1.48;0.85;;;18.90;74.90;;;;;;10500601;28;20028;-64
2021/10/04 00:14:31;;;;;;;1.27;0.90;;;19.00;74.80;;;;;;10495044;28;20024;-65
2021/10/04 00:19:32;;;;;;;1.83;1.00;;;19.00;74.70;;;;;;10500191;28;20028;-65
2021/10/04 00:24:32;;;;;;;1.13;0.70;;;19.00;74.70;;;;;;10499475;28;20044;-64
2021/10/04 00:29:33;;;;;;;2.72;1.35;;;19.00;74.50;;;;;;10499604;28;20120;-65
2021/10/04 00:34:34;;;;;;;2.05;1.15;;;19.10;74.40;;;;;;10500142;28;20044;-64
2021/10/04 00:39:36;;;;;;;2.03;1.13;;;19.00;74.40;;;;;;10499032;28;20048;-65
2021/10/04 00:44:36;;;;;;;1.40;0.93;;;19.00;74.60;;;;;;10498912;28;20040;-64
2021/10/04 00:49:37;;;;;;;1.52;0.82;;;19.00;74.80;;;;;;10512814;28;20120;-65
2021/10/04 00:54:38;;;;;;;2.17;1.17;;;18.90;74.90;;;;;;10498944;28;20040;-65
2021/10/04 00:59:39;;;;;;;2.00;1.30;;;18.80;75.10;;;;;;10498233;28;20040;-64
2021/10/04 01:04:42;;;;;;;2.70;1.20;;;18.80;75.20;;;;;;10485498;28;20431;-64
2021/10/04 01:09:42;;;;;;;3.38;1.10;;;18.90;75.00;;;;;;10499800;28;20047;-65
2021/10/04 01:14:43;;;;;;;1.88;1.02;;;18.90;74.90;;;;;;10497352;28;20183;-65
2021/10/04 01:19:44;;;;;;;3.25;1.27;;;18.80;74.90;;;;;;10497288;28;20033;-64
2021/10/04 01:24:45;;;;;;;2.30;1.08;;;18.80;75.10;;;;;;10497109;28;20032;-65
2021/10/04 01:29:45;;;;;;;3.58;1.20;;;18.80;75.20;;;;;;10498229;28;20077;-65
2021/10/04 01:34:47;;;;;;;1.80;1.00;;;18.80;75.20;;;;;;10496173;28;20124;-64
2021/10/04 01:39:47;;;;;;;4.25;0.90;;;18.90;74.90;;;;;;10496445;28;20092;-65
2021/10/04 01:44:50;;;;;;;1.25;0.75;;;18.90;74.70;;;;;;10497456;28;20111;-64
2021/10/04 01:49:51;;;;;;;2.60;1.13;;;19.10;74.80;;;;;;10496315;28;20039;-64
2021/10/04 01:54:51;;;;;;;2.50;0.93;;;19.10;74.80;;;;;;10497205;28;20058;-64
2021/10/04 01:59:53;;;;;;;2.10;0.90;;;19.10;75.60;;;;;;10496106;28;20440;-64
2021/10/04 02:04:54;;;;;;;2.33;1.20;;;19.00;75.90;;;;;;10495756;28;20044;-64
2021/10/04 02:09:54;;;;;;;3.47;1.20;;;19.00;76.40;;;;;;10478867;28;20043;-64
2021/10/04 02:14:55;;;;;;;2.28;1.52;;;18.90;76.50;;;;;;10478714;28;20036;-65
2021/10/04 02:19:57;;;;;;;1.88;0.70;;;18.90;76.50;;;;;;10495550;28;20128;-64
2021/10/04 02:24:57;;;;;;;0.70;0.50;;;19.00;76.30;;;;;;10495055;28;20036;-64
2021/10/04 02:29:58;;;;;;;2.65;0.90;;;19.00;76.20;;;;;;10496561;28;20032;-64
2021/10/04 02:34:59;;;;;;;1.15;0.80;;;19.00;76.40;;;;;;10478101;28;20045;-65
2021/10/04 02:39:59;;;;;;;1.63;0.75;;;18.90;76.50;;;;;;10494984;28;20120;-64
2021/10/04 02:45:00;;;;;;;1.15;0.70;;;18.80;76.70;;;;;;10487386;28;20042;-64
2021/10/04 02:50:04;;;;;;;1.33;0.80;;;18.90;76.50;;;;;;10507787;28;20128;-65
2021/10/04 02:55:05;;;;;;;1.92;0.85;;;18.90;76.30;;;;;;10494751;28;20389;-65
2021/10/04 03:00:10;;;;;;;1.05;0.75;;;18.90;76.30;;;;;;10495955;28;20414;-65
2021/10/04 03:05:11;;;;;;;1.58;0.70;;;18.80;76.30;;;;;;10506101;28;20029;-64
2021/10/04 03:10:12;;;;;;;1.60;0.85;;;18.80;76.50;;;;;;10478502;28;20488;-65
2021/10/04 03:15:13;;;;;;;1.63;0.80;;;18.80;76.50;;;;;;10502499;28;20032;-65
2021/10/04 03:20:14;;;;;;;2.47;1.20;;;18.80;76.20;;;;;;10502441;28;20028;-65
2021/10/04 03:25:15;;;;;;;2.22;0.70;;;18.90;76.10;;;;;;10502130;28;20036;-64
2021/10/04 03:30:16;;;;;;;1.30;0.75;;;18.90;76.00;;;;;;10502125;28;20028;-65
2021/10/04 03:35:18;;;;;;;2.90;1.10;;;18.90;76.00;;;;;;10485066;28;20040;-65
2021/10/04 03:40:20;;;;;;;1.85;0.90;;;18.90;76.10;;;;;;10501510;28;20029;-64
2021/10/04 03:45:20;;;;;;;1.75;0.52;;;18.80;76.10;;;;;;10501541;28;20032;-64
2021/10/04 03:50:21;;;;;;;1.02;0.70;;;18.80;76.20;;;;;;10513709;28;20123;-65
2021/10/04 03:55:22;;;;;;;1.23;0.85;;;18.80;76.10;;;;;;10500807;28;20461;-64
2021/10/04 04:00:27;;;;;;;1.27;0.80;;;18.90;75.70;;;;;;10483961;28;20110;-65
2021/10/04 04:05:27;;;;;;;1.15;0.65;;;19.00;75.60;;;;;;10487057;28;20068;-65
2021/10/04 04:10:28;;;;;;;1.85;0.50;;;19.00;75.40;;;;;;10500572;28;20052;-65
2021/10/04 04:15:29;;;;;;;1.83;0.65;;;19.00;75.40;;;;;;10501406;28;20103;-65
2021/10/04 04:20:30;;;;;;;1.55;0.77;;;18.90;75.50;;;;;;10500447;28;20036;-65
2021/10/04 04:25:31;;;;;;;1.08;0.88;;;18.90;75.70;;;;;;10499784;28;20032;-65
2021/10/04 04:30:32;;;;;;;1.33;0.80;;;18.90;75.60;;;;;;10477176;28;20361;-65
2021/10/04 04:35:33;;;;;;;1.63;0.73;;;18.90;75.50;;;;;;10498492;28;20117;-64
2021/10/04 04:40:34;;;;;;;1.55;0.65;;;18.90;75.50;;;;;;10499658;28;20529;-65
2021/10/04 04:45:34;;;;;;;1.27;0.70;;;18.80;75.50;;;;;;10494062;28;20078;-66
2021/10/04 04:50:35;;;;;;;3.30;0.77;;;18.80;75.60;;;;;;10488474;28;20025;-65
2021/10/04 04:55:36;;;;;;;2.97;0.85;;;18.90;75.40;;;;;;10498613;28;20111;-65
2021/10/04 05:00:37;;;;;;;5.75;0.93;;;18.90;75.50;;;;;;10497670;28;20036;-65
2021/10/04 05:05:37;;;;;;;1.70;0.60;;;19.00;75.40;;;;;;10497217;28;20035;-63
2021/10/04 05:10:38;;;;;;;4.00;0.60;;;19.10;75.60;;;;;;10498042;28;20104;-62
2021/10/04 05:15:39;;;;;;;2.25;0.90;;;19.10;76.20;;;;;;10498025;28;20035;-65
2021/10/04 05:20:40;;;;;;;4.90;1.00;;;19.20;75.70;;;;;;10499014;28;20126;-66
2021/10/04 05:25:41;;;;;;;3.80;1.10;;;19.20;75.60;;;;;;10480633;28;20041;-66
2021/10/04 05:30:41;;;;;;;4.90;0.95;;;19.20;75.60;;;;;;10496720;28;20025;-66
2021/10/04 05:35:42;;;;;;;6.75;1.23;;;19.20;75.80;;;;;;10495602;28;20052;-66
2021/10/04 05:40:44;;;;;;;8.52;1.38;;;19.10;76.10;;;;;;10469940;28;20028;-66
2021/10/04 05:45:44;;;;;;;3.15;1.30;;;19.10;75.80;;;;;;10484340;28;20409;-65
2021/10/04 05:50:45;;;;;;;3.65;0.98;;;19.00;75.70;;;;;;10492660;28;20115;-63
2021/10/04 05:55:47;;;;;;;8.32;1.30;;;19.00;76.20;;;;;;10484798;28;20032;-65
2021/10/04 06:00:48;;;;;;;7.68;1.60;;;18.90;77.00;;;;;;10495196;28;20400;-58
2021/10/04 06:05:48;;;;;;;8.15;1.52;;;18.90;76.10;;;;;;10494042;28;20112;-65
2021/10/04 06:10:49;;;;;;;12.77;2.03;;;19.00;76.00;;;;;;10496895;28;20107;-63
2021/10/04 06:15:50;;;;;;;7.57;1.70;;;18.90;76.10;;;;;;10476981;28;20097;-64
2021/10/04 06:20:51;;;;;;;7.88;1.83;;;18.80;76.10;;;;;;10477299;28;20039;-63
2021/10/04 06:25:52;;;;;;;6.00;1.50;;;18.70;76.40;;;;;;10493943;28;20048;-63
2021/10/04 06:30:52;;;;;;;7.88;1.80;;;18.70;76.40;;;;;;10494217;28;20119;-64
2021/10/04 06:35:53;;;;;;;6.32;1.80;;;18.60;76.70;;;;;;10496579;28;20060;-64
2021/10/04 06:40:54;;;;;;;8.48;1.70;;;18.60;76.80;;;;;;10492964;28;20044;-63
2021/10/04 06:45:55;;;;;;;5.18;1.55;;;18.50;76.90;;;;;;10495007;28;20044;-63
2021/10/04 06:50:55;;;;;;;7.13;1.83;;;18.50;76.90;;;;;;10513011;28;20028;-63
2021/10/04 06:55:56;;;;;;;4.82;1.83;;;18.50;76.70;;;;;;10475558;28;20486;-64
2021/10/04 07:00:57;;;;;;;7.97;1.40;;;18.60;76.40;;;;;;10504443;28;20370;-64
2021/10/04 07:05:59;;;;;;;8.63;1.52;;;18.70;76.20;;;;;;10477520;28;20036;-62
2021/10/04 07:10:59;;;;;;;8.02;1.48;;;18.60;76.10;;;;;;10502610;28;20064;-63
2021/10/04 07:16:00;;;;;;;4.00;1.38;;;18.70;75.70;;;;;;10503380;28;20524;-63
2021/10/04 07:21:01;;;;;;;6.20;1.60;;;18.80;75.10;;;;;;10503742;28;20090;-64
2021/10/04 07:26:02;;;;;;;4.95;0.95;;;18.90;75.40;;;;;;10503365;28;20071;-62
2021/10/04 07:31:03;;;;;;;6.50;1.33;;;19.00;74.60;;;;;;10502876;28;20102;-62
2021/10/04 07:36:06;;;;;;;6.70;1.48;;;19.00;75.30;;;;;;10502462;28;20074;-61
2021/10/04 07:41:08;;;;;;;6.38;1.45;;;19.00;75.60;;;;;;10491847;28;20073;-61
2021/10/04 07:46:09;;;;;;;5.63;1.50;;;19.00;75.40;;;;;;10501390;28;20385;-61
2021/10/04 07:51:14;;;;;;;10.95;1.70;;;19.00;75.50;;;;;;10506799;28;20029;-62
2021/10/04 07:56:15;;;;;;;10.15;2.10;;;19.00;76.00;;;;;;10500581;28;20067;-64
2021/10/04 08:01:16;;;;;;;14.80;1.45;;;18.90;76.20;;;;;;10500071;28;20028;-62
2021/10/04 08:06:17;;;;;;;3.88;1.30;;;19.00;76.10;;;;;;10500630;28;20170;-63
2021/10/04 08:11:18;;;;;;;8.95;1.70;;;18.90;76.10;;;;;;10495815;28;20071;-64
2021/10/04 08:16:21;;;;;;;12.88;2.03;;;18.90;76.10;;;;;;10500741;28;20444;-63
2021/10/04 08:21:23;;;;;;;10.85;2.15;;;19.00;76.20;;;;;;10495039;28;20031;-62
2021/10/04 08:26:23;;;;;;;14.52;2.50;;;19.00;75.90;;;;;;10516404;28;20037;-59
2021/10/04 08:31:29;;;;;;;15.43;2.55;;;19.00;76.10;;;;;;10500513;28;20416;-60
2021/10/04 08:36:32;;;;;;;11.73;2.13;;;18.90;76.50;;;;;;10499246;28;20377;-60
2021/10/04 08:41:34;;;;;;;12.45;2.55;;;18.90;76.50;;;;;;10483504;28;20366;-60
2021/10/04 08:46:42;;;;;;;13.15;2.15;;;19.00;76.50;;;;;;10498547;28;20025;-60
2021/10/04 08:51:44;;;;;;;11.48;1.75;;;19.00;76.30;;;;;;10500303;28;20048;-57
2021/10/04 08:56:45;;;;;;;9.52;1.40;;;19.00;76.20;;;;;;10499898;28;20388;-59
2021/10/04 09:01:46;;;;;;;11.23;1.80;;;19.00;76.00;;;;;;10498346;28;20048;-59
2021/10/04 09:06:48;;;;;;;12.32;2.05;;;19.00;76.00;;;;;;10481494;28;20350;-60
2021/10/04 09:11:50;;;;;;;5.82;1.45;;;19.00;75.80;;;;;;10513010;28;20028;-60
2021/10/04 09:16:57;;;;;;;12.85;1.85;;;19.10;75.90;;;;;;10498549;28;20067;-60
2021/10/04 09:22:15;;;;;;;9.18;3.53;;;19.10;75.80;;;;;;10497313;28;20035;-56
2021/10/04 09:27:37;;;;;;;6.45;1.63;;;19.10;75.70;;;;;;10498515;28;20029;-61
2021/10/04 09:32:47;;;;;;;9.00;1.45;;;19.20;75.60;;;;;;10496906;28;20050;-61
2021/10/04 09:38:13;;;;;;;6.97;1.48;;;19.20;75.60;;;;;;10497533;28;20086;-61
2021/10/04 09:43:28;;;;;;;10.25;1.58;;;19.20;75.70;;;;;;10496484;28;20055;-62
2021/10/04 09:48:29;;;;;;;12.75;2.05;;;19.30;75.70;;;;;;10497315;28;20119;-63
2021/10/04 09:53:30;;;;;;;10.52;2.20;;;19.30;75.60;;;;;;10478740;28;20025;-62
2021/10/04 09:58:32;;;;;;;13.15;1.65;;;19.30;75.70;;;;;;10476733;28;20504;-64
2021/10/04 10:03:39;;;;;;;12.65;2.05;;;19.30;75.30;;;;;;10495432;28;20078;-62
2021/10/04 10:08:39;;;;;;;12.80;1.88;;;19.30;75.10;;;;;;10495610;28;20032;-62
2021/10/04 10:13:40;;;;;;;9.50;1.67;;;19.30;75.00;;;;;;10511593;28;20115;-63
2021/10/04 10:18:47;;;;;;;13.10;2.13;;;19.40;74.90;;;;;;10494204;28;20111;-62
2021/10/04 10:23:54;;;;;;;6.25;1.50;;;19.50;74.90;;;;;;10495464;28;20592;-62
2021/10/04 10:29:13;;;;;;;6.05;1.50;;;19.50;74.80;;;;;;10495723;28;20055;-63
2021/10/04 10:34:32;;;;;;;12.50;1.83;;;19.50;74.90;;;;;;10496557;28;20037;-62
2021/10/04 10:39:37;;;;;;;10.47;2.07;;;19.60;74.90;;;;;;10494583;28;20033;-60
2021/10/04 10:44:56;;;;;;;8.90;2.53;;;19.60;75.10;;;;;;10495248;28;20058;-65
2021/10/04 10:50:27;;;;;;;13.40;1.58;;;19.60;75.00;;;;;;10508088;28;20509;-63
2021/10/04 10:55:42;;;;;;;11.00;2.20;;;19.60;74.90;;;;;;10496631;28;20162;-65
2021/10/04 11:00:50;;;;;;;9.80;1.73;;;19.60;74.80;;;;;;10494660;28;20032;-62
2021/10/04 11:05:58;;;;;;;8.48;1.98;;;19.60;74.60;;;;;;10486058;28;20119;-61
2021/10/04 11:10:59;;;;;;;9.90;1.75;;;19.60;74.30;;;;;;10494928;28;20075;-62
2021/10/04 11:16:19;;;;;;;7.03;1.75;;;19.60;74.40;;;;;;10496127;28;20114;-62
2021/10/04 11:21:29;;;;;;;7.38;1.52;;;19.60;74.20;;;;;;10487413;28;20041;-62
2021/10/04 11:26:33;;;;;;;;;;;19.70;74.10;;;;;;10493141;28;20059;-63
2021/10/04 11:31:36;;;;;;;11.55;1.80;;;19.70;74.00;;;;;;10491714;28;19916;-62
2021/10/04 11:36:45;;;;;;;5.03;1.50;;;19.70;74.10;;;;;;10499559;28;20040;-62
2021/10/04 11:42:03;;;;;;;9.25;1.80;;;19.60;74.20;;;;;;10500745;28;20033;-62
2021/10/04 11:47:06;;;;;;;4.85;1.20;;;19.60;74.30;;;;;;10501335;28;20030;-62
2021/10/04 11:52:17;;;;;;;4.03;1.42;;;19.70;74.30;;;;;;10513767;28;20025;-62
2021/10/04 11:57:21;;;;;;;5.82;1.20;;;19.60;74.20;;;;;;10501109;28;20078;-62
2021/10/04 12:02:38;;;;;;;5.45;1.20;;;19.70;74.10;;;;;;10501747;28;20094;-62
2021/10/04 12:08:04;;;;;;;5.68;1.63;;;19.70;74.10;;;;;;10485035;28;20029;-62
2021/10/04 12:13:08;;;;;;;6.95;2.10;;;19.70;74.00;;;;;;10500504;28;20107;-62
2021/10/04 12:18:22;;;;;;;6.40;1.73;;;19.70;74.00;;;;;;10500153;28;20032;-63
2021/10/04 12:23:24;;;;;;;4.10;1.02;;;19.70;74.10;;;;;;10500624;28;20028;-62
2021/10/04 12:28:25;;;;;;;3.78;1.10;;;19.70;74.00;;;;;;10499925;28;20474;-62
2021/10/04 12:33:47;;;;;;;4.10;1.05;;;19.70;74.00;;;;;;10499700;28;20554;-62
2021/10/04 12:38:56;;;;;;;3.88;1.00;;;19.60;74.20;;;;;;10499480;28;20154;-63
2021/10/04 12:44:15;;;;;;;7.43;1.40;;;19.60;74.30;;;;;;10499075;28;20115;-62
2021/10/04 12:49:21;;;;;;;2.35;0.90;;;19.60;74.30;;;;;;10510481;28;20032;-63
2021/10/04 12:54:34;;;;;;;4.32;1.27;;;19.60;74.30;;;;;;10499594;28;20078;-63
2021/10/04 12:59:36;;;;;;;4.50;1.00;;;19.60;74.30;;;;;;10498897;28;20040;-63
2021/10/04 13:04:38;;;;;;;3.72;0.77;;;19.60;74.30;;;;;;10498479;28;20032;-63
2021/10/04 13:09:39;;;;;;;3.30;0.80;;;19.60;74.20;;;;;;10481407;28;20488;-62
2021/10/04 13:14:40;;;;;;;3.28;1.20;;;19.60;74.20;;;;;;10496121;28;20036;-63
2021/10/04 13:19:40;;;;;;;4.22;1.08;;;19.60;74.20;;;;;;10480819;28;20437;-63
2021/10/04 13:24:41;;;;;;;2.95;1.30;;;19.60;74.20;;;;;;10498875;28;20051;-63
2021/10/04 13:29:42;;;;;;;2.33;1.00;;;19.60;74.30;;;;;;10498390;28;20120;-63
2021/10/04 13:34:43;;;;;;;2.15;0.95;;;19.60;74.30;;;;;;10496821;28;20040;-63
2021/10/04 13:39:43;;;;;;;3.40;1.33;;;19.50;74.30;;;;;;10480304;28;20028;-63
2021/10/04 13:44:44;;;;;;;3.05;0.88;;;19.50;74.50;;;;;;10480216;28;20522;-63
2021/10/04 13:49:45;;;;;;;2.22;0.80;;;19.50;74.60;;;;;;10491497;28;20043;-63
2021/10/04 13:54:46;;;;;;;3.78;0.93;;;19.50;74.60;;;;;;10496973;28;20031;-62
2021/10/04 13:59:46;;;;;;;1.58;0.80;;;19.50;74.50;;;;;;10496413;28;20103;-63
2021/10/04 14:04:47;;;;;;;1.85;0.70;;;19.40;74.60;;;;;;10496354;28;20038;-63
2021/10/04 14:09:48;;;;;;;2.67;1.00;;;19.40;74.60;;;;;;10496531;28;20032;-63
2021/10/04 14:14:48;;;;;;;4.60;1.30;;;19.40;74.60;;;;;;10485960;28;20089;-61
2021/10/04 14:19:49;;;;;;;6.75;1.50;;;19.40;74.70;;;;;;10494412;28;20066;-61
2021/10/04 14:24:50;;;;;;;13.82;1.77;;;19.40;74.70;;;;;;10491113;28;20067;-62
2021/10/04 14:29:50;;;;;;;16.10;2.17;;;19.50;74.60;;;;;;10483237;28;20106;-61
2021/10/04 14:34:51;;;;;;;14.02;2.85;;;19.50;74.60;;;;;;10492216;28;20109;-58
2021/10/04 14:39:52;;;;;;;13.48;2.30;;;19.50;74.60;;;;;;10496848;28;20056;-62
2021/10/04 14:44:53;;;;;;;7.60;2.22;;;19.50;74.60;;;;;;10496680;28;20029;-60
2021/10/04 14:49:56;;;;;;;21.65;3.42;;;19.50;75.10;;;;;;10494860;28;20035;-60
2021/10/04 14:54:57;;;;;;;21.45;3.45;;;19.50;74.90;;;;;;10482974;28;20020;-61
2021/10/04 14:59:58;;;;;;;11.93;1.88;;;19.50;75.30;;;;;;10476419;28;20043;-62
2021/10/04 15:04:58;;;;;;;20.85;4.13;;;19.40;75.40;;;;;;10494286;28;20111;-61
2021/10/04 15:09:59;;;;;;;18.45;3.17;;;19.40;75.50;;;;;;10501653;28;20056;-60
2021/10/04 15:15:03;;;;;;;9.38;2.13;;;19.40;75.90;;;;;;10494235;28;20028;-60
2021/10/04 15:20:06;;;;;;;13.27;2.08;;;19.40;75.90;;;;;;10487220;28;20031;-60
2021/10/04 15:25:07;;;;;;;20.13;3.08;;;19.40;75.90;;;;;;10493556;28;20039;-64
2021/10/04 15:30:08;;;;;;;10.55;2.45;;;19.40;75.90;;;;;;10483555;28;20440;-64
2021/10/04 15:35:09;;;;;;;14.98;2.75;;;19.30;75.10;;;;;;10494253;28;20041;-69
2021/10/04 15:40:10;;;;;;;17.17;6.55;;;19.30;74.20;;;;;;10483692;28;20027;-66
2021/10/04 15:45:11;;;;;;;13.40;5.60;;;19.30;76.20;;;;;;10467170;28;20037;-67
2021/10/04 15:50:14;;;;;;;13.50;3.85;;;19.40;76.90;;;;;;10480174;28;20037;-66
2021/10/04 15:55:15;;;;;;;14.05;3.83;;;19.50;77.00;;;;;;10480081;28;20051;-65
2021/10/04 16:00:16;;;;;;;18.30;3.88;;;19.70;76.40;;;;;;10494183;28;20078;-63
2021/10/04 16:05:19;;;;;;;12.88;3.33;;;19.70;75.70;;;;;;10491956;28;20039;-65
2021/10/04 16:10:21;;;;;;;10.63;3.65;;;19.70;75.90;;;;;;10477888;28;20479;-64
2021/10/04 16:15:23;;;;;;;22.73;4.55;;;19.60;75.80;;;;;;10499178;28;20449;-61
2021/10/04 16:20:24;;;;;;;19.60;4.68;;;19.50;75.80;;;;;;10500484;28;20040;-70
2021/10/04 16:25:25;;;;;;;17.17;4.30;;;19.50;76.30;;;;;;10501286;28;20453;-67
2021/10/04 16:30:25;;;;;;;21.00;4.97;;;19.50;76.40;;;;;;10499524;28;20035;-66
2021/10/04 16:35:26;;;;;;;22.60;5.40;;;19.50;76.40;;;;;;10495668;28;20044;-64
2021/10/04 16:40:27;;;;;;;23.45;4.85;;;19.50;76.40;;;;;;10496499;28;20048;-62
2021/10/04 16:45:28;;;;;;;34.67;5.63;;;19.40;76.20;;;;;;10508523;28;20111;-62
2021/10/04 16:50:29;;;;;;;26.02;5.80;;;19.30;76.20;;;;;;10496921;28;20064;-59
2021/10/04 16:55:30;;;;;;;25.83;4.93;;;19.30;76.40;;;;;;10498856;28;20035;-62
2021/10/04 17:00:31;;;;;;;32.50;5.75;;;19.30;76.40;;;;;;10497593;28;20025;-61
2021/10/04 17:05:32;;;;;;;21.77;4.35;;;19.30;76.30;;;;;;10498305;28;20075;-61
2021/10/04 17:10:33;;;;;;;27.10;5.30;;;19.20;76.30;;;;;;10494645;28;20050;-63
2021/10/04 17:15:34;;;;;;;19.95;5.25;;;19.10;76.40;;;;;;10479158;28;20040;-59
2021/10/04 17:20:36;;;;;;;17.85;4.03;;;19.10;76.50;;;;;;10481411;28;20481;-62
2021/10/04 17:25:36;;;;;;;14.82;4.20;;;19.10;76.50;;;;;;10497459;28;20400;-62
2021/10/04 17:30:37;;;;;;;20.85;4.60;;;19.00;76.30;;;;;;10496264;28;20131;-62
2021/10/04 17:35:38;;;;;;;15.13;3.20;;;19.00;76.30;;;;;;10478856;28;20050;-62
2021/10/04 17:40:39;;;;;;;12.70;3.30;;;19.00;76.90;;;;;;10383485;28;20438;-62
2021/10/04 17:45:40;;;;;;;16.02;3.30;;;19.00;76.90;;;;;;10484983;28;20033;-61
2021/10/04 17:50:46;;;;;;;9.13;3.03;;;19.00;76.40;;;;;;10474749;28;20075;-62
2021/10/04 17:55:47;;;;;;;11.20;3.22;;;19.00;76.60;;;;;;10487845;28;20030;-61
2021/10/04 18:00:50;;;;;;;11.93;3.20;;;18.90;76.60;;;;;;10488947;28;20043;-61
2021/10/04 18:05:50;;;;;;;13.50;3.80;;;18.90;76.60;;;;;;10486110;28;20044;-61
2021/10/04 18:10:51;;;;;;;12.68;2.85;;;18.90;76.60;;;;;;10488836;28;20552;-62
2021/10/04 18:15:52;;;;;;;9.25;3.35;;;18.90;76.60;;;;;;10489258;28;20024;-62
2021/10/04 18:20:53;;;;;;;8.80;3.00;;;18.90;76.50;;;;;;10491361;28;20085;-62
2021/10/04 18:25:55;;;;;;;9.27;2.70;;;18.80;76.50;;;;;;10489805;28;20028;-62
2021/10/04 18:30:57;;;;;;;6.05;2.30;;;18.80;76.50;;;;;;10494055;28;20036;-62
2021/10/04 18:35:59;;;;;;;11.32;2.60;;;18.80;76.60;;;;;;10495042;28;20057;-62
2021/10/04 18:41:00;;;;;;;11.35;2.30;;;18.80;76.40;;;;;;10497242;28;20116;-61
2021/10/04 18:46:01;;;;;;;11.43;3.00;;;18.80;76.40;;;;;;10509070;28;20032;-57
2021/10/04 18:51:02;;;;;;;12.55;3.35;;;18.90;76.60;;;;;;10511032;28;20405;-58
2021/10/04 18:56:02;;;;;;;13.32;3.15;;;19.00;76.60;;;;;;10504323;28;20042;-60
2021/10/04 19:01:03;;;;;;;10.05;3.30;;;19.00;76.40;;;;;;10508294;28;20396;-60
2021/10/04 19:06:05;;;;;;;10.38;3.03;;;18.90;76.40;;;;;;10507204;28;20036;-60
2021/10/04 19:11:07;;;;;;;5.65;2.13;;;18.80;76.50;;;;;;10509068;28;20059;-60
2021/10/04 19:16:08;;;;;;;6.63;2.00;;;18.80;76.50;;;;;;10508735;28;20060;-60
2021/10/04 19:21:08;;;;;;;5.95;1.73;;;18.80;76.40;;;;;;10508582;28;20607;-60
2021/10/04 19:26:09;;;;;;;7.80;2.67;;;18.80;76.50;;;;;;10508135;28;20035;-60
2021/10/04 19:31:10;;;;;;;5.43;1.95;;;18.70;76.40;;;;;;10507758;28;20447;-60
2021/10/04 19:36:11;;;;;;;4.63;1.40;;;18.70;76.40;;;;;;10508966;28;20035;-60
2021/10/04 19:41:12;;;;;;;6.43;1.88;;;18.70;76.40;;;;;;10481862;28;20032;-61
2021/10/04 19:46:13;;;;;;;5.75;2.08;;;18.70;76.40;;;;;;10507602;28;20067;-60
2021/10/04 19:51:13;;;;;;;4.60;2.10;;;18.70;76.40;;;;;;10532634;28;20519;-60
2021/10/04 19:56:16;;;;;;;5.00;1.90;;;18.70;76.40;;;;;;10477592;28;20043;-60
2021/10/04 20:01:20;;;;;;;5.45;1.73;;;18.70;76.30;;;;;;10500937;28;20469;-60
2021/10/04 20:06:21;;;;;;;4.25;1.30;;;18.70;76.40;;;;;;10501037;28;20043;-60
2021/10/04 20:11:21;;;;;;;4.13;1.42;;;18.70;76.30;;;;;;10501861;28;20111;-60
2021/10/04 20:16:22;;;;;;;4.85;1.75;;;18.70;76.40;;;;;;10483700;28;20059;-60
2021/10/04 20:21:24;;;;;;;4.75;1.55;;;18.70;76.40;;;;;;10500536;28;20063;-60
2021/10/04 20:26:24;;;;;;;4.53;1.90;;;18.60;76.40;;;;;;10499866;28;20064;-60
2021/10/04 20:31:25;;;;;;;3.28;1.15;;;18.70;76.50;;;;;;10500725;28;20460;-61
2021/10/04 20:36:26;;;;;;;4.88;2.00;;;18.60;77.00;;;;;;10500762;28;20052;-60
2021/10/04 20:41:26;;;;;;;2.75;1.55;;;18.70;77.00;;;;;;10499790;28;20123;-60
2021/10/04 20:46:27;;;;;;;2.30;1.42;;;18.60;76.30;;;;;;10482274;28;20028;-59
2021/10/04 20:51:28;;;;;;;5.20;1.42;;;18.60;76.30;;;;;;10509771;28;20427;-60
2021/10/04 20:56:29;;;;;;;3.60;1.80;;;18.60;76.30;;;;;;10499911;28;20097;-60
2021/10/04 21:01:29;;;;;;;3.78;1.20;;;18.60;76.30;;;;;;10502124;28;20423;-60
2021/10/04 21:06:30;;;;;;;7.18;1.30;;;18.60;76.30;;;;;;10499505;28;20044;-60
2021/10/04 21:11:31;;;;;;;4.00;1.10;;;18.60;76.30;;;;;;10498175;28;20458;-60
2021/10/04 21:16:32;;;;;;;5.22;1.50;;;18.60;76.30;;;;;;10497810;28;20086;-60
2021/10/04 21:21:33;;;;;;;4.38;1.50;;;18.60;76.30;;;;;;10499350;28;20170;-61
2021/10/04 21:26:34;;;;;;;3.53;1.30;;;18.60;76.30;;;;;;10497285;28;20384;-61
2021/10/04 21:31:34;;;;;;;3.47;1.48;;;18.60;76.30;;;;;;10498071;28;20053;-60
2021/10/04 21:36:35;;;;;;;5.72;1.50;;;18.50;76.30;;;;;;10497317;28;20025;-60
2021/10/04 21:41:36;;;;;;;3.33;1.23;;;18.50;76.30;;;;;;10497498;28;20116;-61
2021/10/04 21:46:36;;;;;;;3.50;1.10;;;18.50;76.30;;;;;;10498367;28;20375;-60
2021/10/04 21:51:37;;;;;;;7.35;1.80;;;18.60;76.30;;;;;;10507812;28;20037;-60
2021/10/04 21:56:38;;;;;;;3.00;1.13;;;18.60;76.00;;;;;;10480159;28;20063;-60
2021/10/04 22:01:49;;;;;;;2.15;0.98;;;18.60;75.90;;;;;;10498088;28;20485;-61
2021/10/04 22:07:13;;;;;;;3.50;1.20;;;18.60;75.80;;;;;;10500690;28;20463;-60
2021/10/04 22:12:14;;;;;;;2.92;1.40;;;18.60;75.70;;;;;;10496670;28;20082;-60
2021/10/04 22:17:14;;;;;;;3.03;1.10;;;18.60;75.80;;;;;;10496577;28;20112;-60
2021/10/04 22:22:15;;;;;;;3.00;1.08;;;18.60;75.90;;;;;;10496236;28;20081;-60
2021/10/04 22:27:16;;;;;;;2.72;1.00;;;18.60;75.90;;;;;;10496033;28;20025;-60
2021/10/04 22:32:16;;;;;;;3.20;1.85;;;18.60;75.90;;;;;;10496415;28;20132;-60
2021/10/04 22:37:17;;;;;;;2.42;1.08;;;18.60;75.70;;;;;;10497116;28;20103;-61
2021/10/04 22:42:18;;;;;;;3.17;1.00;;;18.60;75.70;;;;;;10496879;28;20111;-61
2021/10/04 22:47:18;;;;;;;3.45;1.50;;;18.60;75.70;;;;;;10495613;28;20037;-60
2021/10/04 22:52:19;;;;;;;3.10;1.33;;;18.60;75.70;;;;;;10505487;28;20032;-60
2021/10/04 22:57:20;;;;;;;3.25;1.15;;;18.60;75.30;;;;;;10495324;28;20103;-60
2021/10/04 23:02:20;;;;;;;3.83;1.15;;;18.70;75.10;;;;;;10496554;28;20037;-60
2021/10/04 23:07:21;;;;;;;2.65;1.20;;;18.70;74.90;;;;;;10494891;28;20033;-61
2021/10/04 23:12:22;;;;;;;3.15;1.05;;;18.70;74.80;;;;;;10496590;28;20100;-61
2021/10/04 23:17:23;;;;;;;2.47;1.25;;;18.70;74.80;;;;;;10494774;28;20024;-60
2021/10/04 23:22:23;;;;;;;2.95;0.95;;;18.70;74.90;;;;;;10495044;28;20029;-60
2021/10/04 23:27:24;;;;;;;1.90;1.00;;;18.60;74.90;;;;;;10478094;28;20032;-60
2021/10/04 23:32:25;;;;;;;1.90;0.82;;;18.70;75.00;;;;;;10502296;28;20119;-61
2021/10/04 23:37:25;;;;;;;3.15;1.00;;;18.60;74.90;;;;;;10502099;28;20048;-60
2021/10/04 23:42:27;;;;;;;2.15;0.95;;;18.70;74.90;;;;;;10503451;28;20040;-60
2021/10/04 23:47:28;;;;;;;2.17;0.93;;;18.70;74.90;;;;;;10503189;28;20383;-60
2021/10/04 23:52:28;;;;;;;2.08;0.80;;;18.60;74.90;;;;;;10512494;28;20035;-60
2021/10/04 23:57:29;;;;;;;2.03;0.90;;;18.60;75.00;;;;;;10501644;28;20400;-61
